Time;durP1;ratioP1;P1;durP2;ratioP2;P2;SDS_P1;SDS_P2;PMS_P1;PMS_P2;Temp;Humidity;BMP_temperature;BMP_pressure;BME280_temperature;BME280_humidity;BME280_pressure;Samples;Min_cycle;Max_cycle;Signal;HPM_P1;HPM_P2
2023/08/29 00:00:43;;;;;;;8.77;7.75;;;12.40;99.90;;;;;;4914005;29;20489;-81
2023/08/29 00:03:08;;;;;;;9.80;7.68;;;12.40;99.90;;;;;;4897479;29;20041;-80
2023/08/29 00:05:34;;;;;;;8.93;7.45;;;12.40;99.90;;;;;;4909890;29;20040;-80
2023/08/29 00:08:00;;;;;;;7.97;7.18;;;12.40;99.90;;;;;;4898770;29;20028;-81
2023/08/29 00:10:26;;;;;;;7.50;6.80;;;12.40;99.90;;;;;;4895789;29;20056;-82
2023/08/29 00:12:52;;;;;;;8.70;7.07;;;12.40;99.90;;;;;;4900191;29;20412;-81
2023/08/29 00:15:18;;;;;;;11.68;7.28;;;12.40;99.90;;;;;;4901012;29;20035;-78
2023/08/29 00:17:44;;;;;;;9.10;7.53;;;12.40;99.90;;;;;;4908353;29;20041;-81
2023/08/29 00:20:13;;;;;;;9.13;7.22;;;12.40;99.90;;;;;;4896250;29;20036;-81
2023/08/29 00:22:39;;;;;;;8.05;7.22;;;12.30;99.90;;;;;;4908101;29;20569;-81
2023/08/29 00:25:05;;;;;;;8.95;8.02;;;12.30;99.90;;;;;;4907920;29;20032;-81
2023/08/29 00:27:31;;;;;;;8.45;7.30;;;12.40;99.90;;;;;;4913452;29;20587;-80
2023/08/29 00:29:56;;;;;;;12.00;7.65;;;12.40;99.90;;;;;;4896713;29;20111;-80
2023/08/29 00:32:22;;;;;;;8.30;7.50;;;12.40;99.90;;;;;;4895530;29;20043;-79
2023/08/29 00:34:48;;;;;;;8.02;7.00;;;12.40;99.90;;;;;;4914914;29;20634;-81
2023/08/29 00:37:14;;;;;;;9.52;7.50;;;12.40;99.90;;;;;;4906931;29;20040;-82
2023/08/29 00:39:40;;;;;;;8.88;7.93;;;12.30;99.90;;;;;;4906997;29;20153;-80
2023/08/29 00:42:05;;;;;;;9.30;7.35;;;12.40;99.90;;;;;;4901873;29;20060;-80
2023/08/29 00:44:31;;;;;;;8.57;7.68;;;12.30;99.90;;;;;;4923762;29;20044;-81
2023/08/29 00:46:58;;;;;;;9.35;7.03;;;12.40;99.90;;;;;;4904501;29;20032;-82
2023/08/29 00:49:26;;;;;;;10.90;7.95;;;12.40;99.90;;;;;;4894504;29;20036;-81
2023/08/29 00:51:53;;;;;;;7.80;7.00;;;12.40;99.90;;;;;;4901306;29;20060;-80
2023/08/29 00:54:37;;;;;;;8.60;7.00;;;12.30;99.90;;;;;;4902966;29;20112;-82
2023/08/29 00:57:03;;;;;;;11.10;7.55;;;12.30;99.90;;;;;;4920660;29;20497;-81
2023/08/29 00:59:30;;;;;;;7.80;6.80;;;12.30;99.90;;;;;;4888706;29;20536;-81
2023/08/29 01:01:56;;;;;;;10.95;7.95;;;12.30;99.90;;;;;;4913509;29;20064;-81
2023/08/29 01:04:21;;;;;;;8.25;7.40;;;12.40;99.90;;;;;;4900212;29;20036;-81
2023/08/29 01:06:48;;;;;;;7.90;7.10;;;12.30;99.90;;;;;;4906396;29;20100;-82
2023/08/29 01:09:13;;;;;;;9.95;7.60;;;12.30;99.90;;;;;;4897197;29;20770;-81
2023/08/29 01:11:51;;;;;;;8.15;7.35;;;12.30;99.90;;;;;;4895972;29;20036;-81
2023/08/29 01:14:49;;;;;;;7.85;7.05;;;12.30;99.90;;;;;;4892175;29;20131;-81
2023/08/29 01:17:37;;;;;;;8.60;7.53;;;12.30;99.90;;;;;;4905921;29;20028;-80
2023/08/29 01:20:05;;;;;;;8.88;7.88;;;12.30;99.90;;;;;;4898558;29;20029;-81
2023/08/29 01:22:39;;;;;;;7.75;6.95;;;12.20;99.90;;;;;;4910411;29;20040;-82
2023/08/29 01:25:19;;;;;;;7.60;6.90;;;12.30;99.90;;;;;;4906036;29;20032;-81
2023/08/29 01:27:47;;;;;;;10.18;7.90;;;12.30;99.90;;;;;;4898363;29;20025;-82
2023/08/29 01:30:15;;;;;;;8.23;7.03;;;12.20;99.90;;;;;;4893861;29;20515;-81
2023/08/29 01:32:41;;;;;;;8.70;7.60;;;12.20;99.90;;;;;;4897762;29;20059;-82
2023/08/29 01:35:08;;;;;;;11.45;7.70;;;12.20;99.90;;;;;;4904220;29;20126;-80
2023/08/29 01:37:34;;;;;;;9.85;7.28;;;12.30;99.90;;;;;;4894445;29;20033;-80
2023/08/29 01:40:00;;;;;;;8.05;7.28;;;12.30;99.90;;;;;;4900580;29;20040;-82
2023/08/29 01:42:26;;;;;;;8.68;7.78;;;12.30;99.90;;;;;;4914863;29;20043;-80
2023/08/29 01:44:52;;;;;;;9.20;7.30;;;12.30;99.90;;;;;;4902982;29;20538;-80
2023/08/29 01:47:17;;;;;;;9.40;7.22;;;12.30;99.90;;;;;;4898421;29;20064;-81
2023/08/29 01:49:44;;;;;;;8.13;6.93;;;12.30;99.90;;;;;;4891914;29;20057;-82
2023/08/29 01:52:10;;;;;;;7.75;6.90;;;12.30;99.90;;;;;;4902432;29;20036;-81
2023/08/29 01:54:36;;;;;;;7.43;6.00;;;12.30;99.90;;;;;;4906933;29;20497;-81
2023/08/29 01:57:02;;;;;;;7.82;6.75;;;12.30;99.90;;;;;;4907840;29;20319;-82
2023/08/29 01:59:30;;;;;;;7.55;6.72;;;12.30;99.90;;;;;;4893818;29;20036;-81
2023/08/29 02:01:57;;;;;;;8.27;6.53;;;12.30;99.90;;;;;;4913818;29;20053;-82
2023/08/29 02:04:23;;;;;;;8.77;6.97;;;12.30;99.90;;;;;;4896902;29;20032;-82
2023/08/29 02:06:49;;;;;;;8.77;6.80;;;12.30;99.90;;;;;;4905905;29;20404;-81
2023/08/29 02:09:16;;;;;;;7.45;6.57;;;12.30;99.90;;;;;;4911923;29;20029;-82
2023/08/29 02:11:42;;;;;;;7.10;6.40;;;12.20;99.90;;;;;;4905662;29;20043;-80
2023/08/29 02:14:11;;;;;;;10.00;7.05;;;12.20;99.90;;;;;;4913380;29;20501;-80
2023/08/29 02:16:37;;;;;;;9.88;6.75;;;12.20;99.90;;;;;;4906233;29;20037;-82
2023/08/29 02:19:03;;;;;;;7.95;7.15;;;12.20;99.90;;;;;;4897728;29;20527;-80
2023/08/29 02:21:29;;;;;;;10.60;7.57;;;12.20;99.90;;;;;;4898694;29;20091;-80
2023/08/29 02:23:57;;;;;;;7.32;6.22;;;12.30;99.90;;;;;;4902475;29;20564;-81
2023/08/29 02:26:23;;;;;;;11.68;7.63;;;12.20;99.90;;;;;;4911856;29;20024;-80
2023/08/29 02:28:52;;;;;;;7.57;6.75;;;12.30;99.90;;;;;;4895038;29;20076;-82
2023/08/29 02:31:18;;;;;;;7.15;6.30;;;12.20;99.90;;;;;;4901187;29;20036;-82
2023/08/29 02:33:47;;;;;;;7.25;6.55;;;12.20;99.90;;;;;;4903857;29;20067;-82
2023/08/29 02:36:12;;;;;;;9.27;6.60;;;12.20;99.90;;;;;;4917494;29;20793;-82
2023/08/29 02:38:38;;;;;;;8.20;6.40;;;12.30;99.90;;;;;;4906472;29;20037;-82
2023/08/29 02:41:06;;;;;;;8.30;6.50;;;12.30;99.90;;;;;;4901908;29;20764;-80
2023/08/29 02:43:32;;;;;;;7.50;6.78;;;12.30;99.90;;;;;;4899649;29;20489;-81
2023/08/29 02:45:58;;;;;;;6.80;5.90;;;12.20;99.90;;;;;;4916387;29;20075;-80
2023/08/29 02:48:24;;;;;;;6.90;6.20;;;12.20;99.90;;;;;;4910230;29;20602;-81
2023/08/29 02:50:50;;;;;;;8.40;6.70;;;12.20;99.90;;;;;;4890735;29;20115;-80
2023/08/29 02:53:20;;;;;;;9.07;6.65;;;12.20;99.90;;;;;;4891585;29;20505;-80
2023/08/29 02:55:49;;;;;;;7.55;6.45;;;12.20;99.90;;;;;;4920560;29;20040;-82
2023/08/29 02:58:15;;;;;;;9.95;7.00;;;12.20;99.90;;;;;;4909740;29;20028;-82
2023/08/29 03:00:40;;;;;;;8.98;6.40;;;12.20;99.90;;;;;;4895561;29;20033;-81
2023/08/29 03:03:06;;;;;;;7.93;7.03;;;12.20;99.90;;;;;;4909859;29;20139;-82
2023/08/29 03:05:32;;;;;;;8.35;7.03;;;12.20;99.90;;;;;;4925125;29;20037;-81
2023/08/29 03:07:59;;;;;;;7.28;6.45;;;12.30;99.90;;;;;;4922783;29;20028;-83
2023/08/29 03:10:26;;;;;;;7.57;6.70;;;12.20;99.90;;;;;;4898111;29;20417;-81
2023/08/29 03:12:53;;;;;;;8.35;6.55;;;12.20;99.90;;;;;;4899849;29;20053;-83
2023/08/29 03:15:19;;;;;;;7.40;6.70;;;12.20;99.90;;;;;;4900900;29;20035;-81
2023/08/29 03:17:45;;;;;;;8.45;6.88;;;12.20;99.90;;;;;;4883161;29;20032;-81
2023/08/29 03:20:12;;;;;;;10.85;6.68;;;12.20;99.90;;;;;;4898980;29;20033;-81
2023/08/29 03:22:37;;;;;;;8.40;7.35;;;12.20;99.90;;;;;;4898411;29;20036;-82
2023/08/29 03:25:05;;;;;;;7.63;6.82;;;12.20;99.90;;;;;;4906964;29;20036;-82
2023/08/29 03:27:31;;;;;;;8.63;7.53;;;12.20;99.90;;;;;;4912146;29;20036;-82
2023/08/29 03:29:58;;;;;;;8.48;6.97;;;12.20;99.90;;;;;;4887512;29;20573;-83
2023/08/29 03:32:24;;;;;;;7.80;6.93;;;12.20;99.90;;;;;;4886371;29;20516;-83
2023/08/29 03:34:54;;;;;;;8.95;8.02;;;12.10;99.90;;;;;;4882934;29;20037;-83
2023/08/29 03:37:20;;;;;;;8.07;7.07;;;12.20;99.90;;;;;;4901606;29;20111;-82
2023/08/29 03:39:46;;;;;;;9.35;8.02;;;12.20;99.90;;;;;;4915052;29;20037;-83
2023/08/29 03:42:12;;;;;;;9.05;8.13;;;12.20;99.90;;;;;;4906293;29;20144;-82
2023/08/29 03:44:38;;;;;;;10.38;8.10;;;12.10;99.90;;;;;;4900470;29;20610;-82
2023/08/29 03:47:03;;;;;;;9.82;8.40;;;12.10;99.90;;;;;;4901292;29;20039;-83
2023/08/29 03:49:30;;;;;;;9.38;8.38;;;12.10;99.90;;;;;;4867859;29;1340258;-82
2023/08/29 03:51:56;;;;;;;13.40;8.77;;;12.10;99.90;;;;;;4919383;29;20036;-82
2023/08/29 03:54:22;;;;;;;11.15;8.30;;;12.10;99.90;;;;;;4906559;29;20494;-82
2023/08/29 03:56:48;;;;;;;14.65;9.38;;;12.10;99.90;;;;;;4928581;29;20100;-84
2023/08/29 03:59:15;;;;;;;10.02;8.00;;;12.10;99.90;;;;;;4880112;29;20053;-84
2023/08/29 04:01:41;;;;;;;11.57;8.55;;;12.10;99.90;;;;;;4898135;29;20416;-84
2023/08/29 04:04:07;;;;;;;12.27;9.18;;;12.10;99.90;;;;;;4916385;29;20032;-82
2023/08/29 04:06:35;;;;;;;14.05;9.50;;;12.10;99.90;;;;;;4907034;29;20045;-83
2023/08/29 04:09:03;;;;;;;11.77;9.63;;;12.10;99.90;;;;;;4903974;29;20121;-83
2023/08/29 04:11:29;;;;;;;13.75;9.52;;;12.10;99.90;;;;;;4898274;29;20037;-84
2023/08/29 04:13:55;;;;;;;12.25;9.60;;;12.10;99.90;;;;;;4887178;29;20032;-84
2023/08/29 04:16:21;;;;;;;15.35;9.85;;;12.10;99.90;;;;;;4892250;29;20043;-83
2023/08/29 04:18:46;;;;;;;14.82;10.70;;;12.00;99.90;;;;;;4911667;29;20116;-83
2023/08/29 04:21:12;;;;;;;12.13;9.73;;;12.00;99.90;;;;;;4904975;29;20711;-83
2023/08/29 04:23:38;;;;;;;12.82;9.57;;;12.00;99.90;;;;;;4902623;29;20036;-84
2023/08/29 04:26:04;;;;;;;13.68;10.18;;;12.00;99.90;;;;;;4897454;29;20474;-83
2023/08/29 04:28:30;;;;;;;16.98;9.57;;;12.00;99.90;;;;;;4901721;29;20033;-82
2023/08/29 04:31:05;;;;;;;12.07;10.48;;;12.00;99.90;;;;;;4900768;29;20148;-84
2023/08/29 04:33:31;;;;;;;13.80;11.23;;;12.00;99.90;;;;;;4911289;29;20050;-83
2023/08/29 04:35:57;;;;;;;16.17;10.57;;;12.00;99.90;;;;;;4906169;29;20033;-84
2023/08/29 04:38:23;;;;;;;14.43;11.60;;;12.00;99.90;;;;;;4905059;29;20036;-82
2023/08/29 04:40:53;;;;;;;15.73;10.40;;;12.00;99.90;;;;;;4914081;29;20104;-81
2023/08/29 04:43:19;;;;;;;12.20;10.15;;;12.00;99.90;;;;;;4907012;29;20412;-82
2023/08/29 04:45:46;;;;;;;14.15;11.90;;;12.00;99.90;;;;;;4897980;29;20067;-83
2023/08/29 04:48:12;;;;;;;16.42;12.15;;;12.00;99.90;;;;;;4908970;29;20039;-81
2023/08/29 04:50:39;;;;;;;15.32;11.45;;;12.00;99.90;;;;;;4912795;29;20037;-82
2023/08/29 04:53:05;;;;;;;16.58;11.65;;;12.00;99.90;;;;;;4908872;29;20044;-84
2023/08/29 04:55:32;;;;;;;15.18;11.80;;;12.00;99.90;;;;;;4903199;29;20041;-82
2023/08/29 04:57:58;;;;;;;14.30;11.70;;;12.00;99.90;;;;;;4903108;29;20417;-81
2023/08/29 05:00:24;;;;;;;18.92;11.68;;;12.00;99.90;;;;;;4912316;29;20028;-81
2023/08/29 05:02:50;;;;;;;15.18;11.85;;;12.00;99.90;;;;;;4918314;29;20566;-81
2023/08/29 05:05:16;;;;;;;14.73;11.80;;;12.00;99.90;;;;;;4901475;29;20058;-82
2023/08/29 05:07:43;;;;;;;13.18;10.10;;;12.00;99.90;;;;;;4909450;29;20046;-81
2023/08/29 05:10:09;;;;;;;15.00;11.32;;;12.10;99.90;;;;;;4919017;29;20033;-80
2023/08/29 05:12:35;;;;;;;17.75;11.70;;;12.10;99.90;;;;;;4903189;29;20041;-80
2023/08/29 05:15:01;;;;;;;15.35;11.55;;;12.10;99.90;;;;;;4885631;29;20087;-81
2023/08/29 05:17:27;;;;;;;16.90;11.90;;;12.10;99.90;;;;;;4902437;29;20390;-82
2023/08/29 05:19:54;;;;;;;16.08;11.73;;;12.10;99.90;;;;;;4909037;29;20037;-83
2023/08/29 05:22:20;;;;;;;18.45;12.05;;;12.10;99.90;;;;;;4903565;29;20403;-82
2023/08/29 05:24:46;;;;;;;16.75;12.00;;;12.10;99.90;;;;;;4910196;29;20043;-82
2023/08/29 05:27:12;;;;;;;17.85;12.85;;;12.20;99.90;;;;;;4899680;29;20032;-83
2023/08/29 05:29:39;;;;;;;20.15;12.40;;;12.20;99.90;;;;;;4895670;29;20360;-82
2023/08/29 05:32:05;;;;;;;14.93;10.98;;;12.20;99.90;;;;;;4903888;29;20521;-83
2023/08/29 05:34:31;;;;;;;15.50;11.27;;;12.20;99.90;;;;;;4898848;29;20083;-82
2023/08/29 05:36:57;;;;;;;15.90;10.88;;;12.20;99.90;;;;;;4912536;29;20031;-82
2023/08/29 05:39:23;;;;;;;17.45;12.68;;;12.20;99.90;;;;;;4902788;29;20062;-82
2023/08/29 05:41:50;;;;;;;18.40;12.57;;;12.20;99.90;;;;;;4898529;29;20040;-83
2023/08/29 05:44:16;;;;;;;15.48;11.95;;;12.30;99.90;;;;;;4902411;29;20697;-83
2023/08/29 05:46:42;;;;;;;17.70;12.02;;;12.30;99.90;;;;;;4908804;29;20190;-82
2023/08/29 05:49:07;;;;;;;14.20;11.15;;;12.30;99.90;;;;;;4897442;29;20131;-82
2023/08/29 05:51:33;;;;;;;16.65;12.80;;;12.30;99.90;;;;;;4899508;29;20043;-81
2023/08/29 05:54:00;;;;;;;14.48;11.68;;;12.30;99.90;;;;;;4898858;29;20060;-82
2023/08/29 05:56:26;;;;;;;20.60;14.02;;;12.30;99.90;;;;;;4910042;29;20029;-83
2023/08/29 05:58:52;;;;;;;19.40;13.95;;;12.30;99.90;;;;;;4894502;29;20155;-82
2023/08/29 06:01:18;;;;;;;20.23;12.55;;;12.30;99.90;;;;;;4900080;29;20040;-80
2023/08/29 06:03:43;;;;;;;16.85;12.20;;;12.40;99.90;;;;;;4902820;29;20049;-81
2023/08/29 06:06:10;;;;;;;18.13;13.02;;;12.40;99.90;;;;;;4912860;29;20059;-81
2023/08/29 06:08:40;;;;;;;14.00;11.13;;;12.40;99.90;;;;;;4911619;29;20115;-82
2023/08/29 06:11:29;;;;;;;19.15;12.73;;;12.40;99.90;;;;;;4899383;29;20044;-82
2023/08/29 06:13:54;;;;;;;19.33;12.13;;;12.40;99.90;;;;;;4915947;29;20497;-85
2023/08/29 06:16:20;;;;;;;17.52;12.52;;;12.40;99.90;;;;;;4912939;29;20115;-84
2023/08/29 06:18:47;;;;;;;15.60;11.98;;;12.50;99.90;;;;;;4907832;29;20041;-81
2023/08/29 06:21:13;;;;;;;15.43;12.15;;;12.50;99.90;;;;;;4896098;29;20036;-81
2023/08/29 06:23:38;;;;;;;20.02;13.98;;;12.50;99.90;;;;;;4901612;29;20238;-84
2023/08/29 06:26:04;;;;;;;17.38;13.05;;;12.50;99.90;;;;;;4905981;29;20032;-82
2023/08/29 06:28:48;;;;;;;16.27;12.43;;;12.50;99.90;;;;;;4905985;29;20155;-83
2023/08/29 06:31:14;;;;;;;16.60;13.00;;;12.50;99.90;;;;;;4897945;29;20587;-81
2023/08/29 06:33:40;;;;;;;19.02;12.63;;;12.50;99.90;;;;;;4899464;29;20044;-83
2023/08/29 06:36:06;;;;;;;16.13;12.43;;;12.50;99.90;;;;;;4904092;29;20441;-81
2023/08/29 06:38:33;;;;;;;16.08;12.77;;;12.50;99.90;;;;;;4894114;29;20512;-79
2023/08/29 06:40:59;;;;;;;15.10;11.27;;;12.60;99.90;;;;;;4911121;29;20373;-82
2023/08/29 06:43:25;;;;;;;16.75;11.35;;;12.60;99.90;;;;;;4900849;29;20100;-81
2023/08/29 06:45:51;;;;;;;16.52;12.27;;;12.70;99.90;;;;;;4902806;29;20458;-82
2023/08/29 06:48:36;;;;;;;16.13;12.68;;;12.70;99.90;;;;;;4899952;29;20380;-81
2023/08/29 06:51:03;;;;;;;15.68;12.48;;;12.70;99.90;;;;;;4899476;29;20139;-82
2023/08/29 06:53:29;;;;;;;15.27;12.30;;;12.70;99.90;;;;;;4900815;29;20033;-80
2023/08/29 06:55:54;;;;;;;13.10;11.05;;;12.70;99.90;;;;;;4883540;29;20037;-81
2023/08/29 06:58:20;;;;;;;16.00;12.55;;;12.70;99.90;;;;;;4907324;29;20470;-81
2023/08/29 07:00:46;;;;;;;15.40;12.25;;;12.70;99.90;;;;;;4891809;29;20123;-82
2023/08/29 07:03:12;;;;;;;16.90;11.82;;;12.80;99.90;;;;;;4895490;29;20084;-81
2023/08/29 07:05:39;;;;;;;15.77;12.85;;;12.80;99.90;;;;;;4897036;29;20037;-80
2023/08/29 07:08:05;;;;;;;14.93;12.65;;;12.90;99.90;;;;;;4904916;29;20510;-81
2023/08/29 07:10:31;;;;;;;18.17;13.30;;;12.90;99.90;;;;;;4881934;29;20745;-83
2023/08/29 07:12:56;;;;;;;14.50;11.73;;;12.90;99.90;;;;;;4902677;29;20037;-81
2023/08/29 07:15:22;;;;;;;14.65;12.35;;;13.00;99.90;;;;;;4899433;29;20489;-82
2023/08/29 07:17:48;;;;;;;16.75;12.90;;;13.10;99.90;;;;;;4908193;29;20044;-81
2023/08/29 07:20:15;;;;;;;18.23;13.77;;;13.10;99.90;;;;;;4890912;29;20120;-84
2023/08/29 07:22:43;;;;;;;17.58;12.93;;;13.10;99.90;;;;;;4906025;29;20067;-81
2023/08/29 07:25:11;;;;;;;15.25;12.45;;;13.20;99.90;;;;;;4896076;29;20448;-81
2023/08/29 07:27:37;;;;;;;14.95;12.48;;;13.20;99.90;;;;;;4904069;29;20402;-84
2023/08/29 07:30:03;;;;;;;13.68;12.00;;;13.20;99.90;;;;;;4897868;29;20553;-84
2023/08/29 07:32:30;;;;;;;14.88;11.93;;;13.20;99.90;;;;;;4903546;29;20031;-82
2023/08/29 07:34:56;;;;;;;18.05;12.82;;;13.20;99.90;;;;;;4920032;29;20036;-80
2023/08/29 07:37:23;;;;;;;13.98;11.30;;;13.20;99.90;;;;;;4909804;29;20040;-82
2023/08/29 07:39:49;;;;;;;16.60;12.82;;;13.20;99.90;;;;;;4894348;29;20401;-82
2023/08/29 07:42:16;;;;;;;15.52;13.35;;;13.30;99.90;;;;;;4893857;29;20029;-84
2023/08/29 07:44:43;;;;;;;15.40;12.65;;;13.30;99.90;;;;;;4900737;29;20525;-83
2023/08/29 07:47:09;;;;;;;16.60;13.50;;;13.30;99.90;;;;;;4913269;29;20047;-83
2023/08/29 07:49:35;;;;;;;17.52;13.60;;;13.30;99.90;;;;;;4896567;29;20124;-82
2023/08/29 07:52:01;;;;;;;15.68;12.90;;;13.40;99.90;;;;;;4897236;29;20047;-81
2023/08/29 07:54:28;;;;;;;15.48;13.02;;;13.40;99.90;;;;;;4901656;29;20520;-82
2023/08/29 07:56:53;;;;;;;19.27;13.63;;;13.50;99.90;;;;;;4910342;29;20040;-82
2023/08/29 07:59:20;;;;;;;14.80;11.77;;;13.50;99.90;;;;;;4901735;29;20048;-81
2023/08/29 08:01:46;;;;;;;15.95;12.77;;;13.50;99.90;;;;;;4896041;29;20041;-84
2023/08/29 08:04:12;;;;;;;13.88;11.80;;;13.50;99.90;;;;;;4900628;29;20120;-80
2023/08/29 08:06:39;;;;;;;13.70;11.27;;;13.50;99.90;;;;;;4919447;29;20132;-83
2023/08/29 08:09:06;;;;;;;15.60;11.90;;;13.60;99.90;;;;;;4885562;29;20033;-83
2023/08/29 08:11:31;;;;;;;13.40;11.40;;;13.60;99.90;;;;;;4894941;29;20060;-82
2023/08/29 08:13:57;;;;;;;13.65;11.15;;;13.70;99.90;;;;;;4900407;29;20104;-82
2023/08/29 08:16:23;;;;;;;14.13;12.27;;;13.70;99.90;;;;;;4910945;29;20043;-81
2023/08/29 08:18:49;;;;;;;11.48;10.30;;;13.70;99.90;;;;;;4902931;29;20029;-83
2023/08/29 08:21:15;;;;;;;12.40;9.70;;;13.70;99.90;;;;;;4901458;29;20037;-85
2023/08/29 08:23:41;;;;;;;14.40;11.57;;;13.70;99.90;;;;;;4911730;29;20039;-81
2023/08/29 08:26:06;;;;;;;12.02;10.07;;;13.70;99.90;;;;;;4913393;29;20397;-82
2023/08/29 08:28:32;;;;;;;11.63;10.27;;;13.70;99.90;;;;;;4905783;29;20050;-83
2023/08/29 08:30:57;;;;;;;12.35;11.05;;;13.70;99.90;;;;;;4895058;29;20026;-83
2023/08/29 08:33:25;;;;;;;11.70;10.38;;;13.70;99.90;;;;;;4904375;29;20541;-82
2023/08/29 08:35:51;;;;;;;11.68;10.40;;;13.70;99.90;;;;;;4904780;29;20048;-80
2023/08/29 08:38:17;;;;;;;11.32;10.18;;;13.70;99.90;;;;;;4905167;29;20037;-83
2023/08/29 08:40:44;;;;;;;14.30;10.60;;;13.80;99.90;;;;;;4896445;29;20613;-82
2023/08/29 08:43:11;;;;;;;11.70;10.50;;;13.80;99.90;;;;;;4897411;29;20490;-82
2023/08/29 08:45:38;;;;;;;12.27;9.90;;;13.80;99.90;;;;;;4901066;29;20036;-83
2023/08/29 08:48:05;;;;;;;11.02;9.88;;;13.80;99.90;;;;;;4901950;29;20501;-81
2023/08/29 08:50:31;;;;;;;11.77;9.27;;;13.80;99.90;;;;;;4892893;29;20036;-82
2023/08/29 08:52:59;;;;;;;10.13;9.07;;;13.80;99.90;;;;;;4917906;29;20045;-82
2023/08/29 08:55:26;;;;;;;9.63;8.57;;;13.90;99.90;;;;;;4915373;29;20029;-81
2023/08/29 08:57:53;;;;;;;10.30;8.55;;;13.90;99.90;;;;;;4903011;29;20052;-82
2023/08/29 09:00:20;;;;;;;11.93;8.23;;;13.90;99.90;;;;;;4895474;29;20132;-83
2023/08/29 09:02:46;;;;;;;9.35;8.35;;;13.80;99.90;;;;;;4897122;29;20047;-82
2023/08/29 09:05:12;;;;;;;8.68;7.78;;;13.90;99.90;;;;;;4908976;29;20664;-81
2023/08/29 09:07:39;;;;;;;8.27;7.13;;;13.90;99.90;;;;;;4890732;29;20057;-82
2023/08/29 09:10:15;;;;;;;9.20;8.02;;;14.00;99.90;;;;;;4913209;29;20035;-82
2023/08/29 09:12:47;;;;;;;;;;;14.00;99.90;;;;;;4898575;29;20036;-82
2023/08/29 09:15:16;;;;;;;8.30;5.80;;;14.10;99.90;;;;;;4913837;29;19918;-82
2023/08/29 09:17:49;;;;;;;9.07;6.25;;;14.10;99.90;;;;;;4903737;29;20647;-82
2023/08/29 09:20:16;;;;;;;6.38;5.78;;;14.10;99.90;;;;;;4893883;29;20032;-83
2023/08/29 09:22:43;;;;;;;6.20;5.63;;;14.10;99.90;;;;;;4903570;29;20064;-83
2023/08/29 09:25:10;;;;;;;5.97;5.47;;;14.00;99.90;;;;;;4908270;29;20111;-84
2023/08/29 09:27:40;;;;;;;5.60;5.10;;;14.00;99.90;;;;;;4901934;29;20041;-82
2023/08/29 09:30:24;;;;;;;5.65;5.15;;;13.90;99.90;;;;;;4893766;29;20654;-83
2023/08/29 09:32:51;;;;;;;5.63;4.97;;;13.90;99.90;;;;;;4898324;29;20033;-81
2023/08/29 09:35:19;;;;;;;6.38;5.22;;;13.90;99.90;;;;;;4906941;29;20036;-82
2023/08/29 09:37:53;;;;;;;6.50;5.90;;;13.90;99.90;;;;;;4904021;29;20040;-81
2023/08/29 09:40:23;;;;;;;5.20;4.72;;;13.90;99.90;;;;;;4892115;29;20041;-81
2023/08/29 09:42:53;;;;;;;15.48;6.00;;;13.90;99.90;;;;;;4898909;29;20051;-80
2023/08/29 09:45:19;;;;;;;8.80;6.80;;;13.90;99.90;;;;;;4912965;29;20438;-82
2023/08/29 09:47:45;;;;;;;12.73;6.47;;;14.00;99.90;;;;;;4891900;29;20386;-79
2023/08/29 09:50:11;;;;;;;6.75;5.85;;;14.10;99.90;;;;;;4906502;29;20122;-80
2023/08/29 09:52:39;;;;;;;6.38;5.72;;;14.20;99.90;;;;;;4897760;29;20036;-81
2023/08/29 09:55:08;;;;;;;6.10;5.50;;;14.30;99.90;;;;;;4909074;29;20070;-80
2023/08/29 09:57:35;;;;;;;6.10;5.60;;;14.40;99.90;;;;;;4902277;29;20041;-82
2023/08/29 10:00:04;;;;;;;5.75;5.03;;;14.50;99.90;;;;;;4889524;29;20464;-80
2023/08/29 10:02:33;;;;;;;6.75;5.38;;;14.60;99.90;;;;;;4899022;29;20522;-82
2023/08/29 10:05:08;;;;;;;5.40;4.60;;;14.60;99.90;;;;;;4891290;29;20037;-79
2023/08/29 10:08:24;;;;;;;5.97;5.05;;;14.60;99.90;;;;;;4909286;29;20615;-81
2023/08/29 10:10:53;;;;;;;5.47;4.97;;;14.70;99.90;;;;;;4891696;29;20033;-80
2023/08/29 10:13:20;;;;;;;5.95;5.35;;;14.70;99.90;;;;;;4897905;29;20033;-80
2023/08/29 10:15:48;;;;;;;5.82;5.22;;;14.80;99.90;;;;;;4911248;29;20041;-82
2023/08/29 10:18:15;;;;;;;5.38;4.95;;;14.90;99.90;;;;;;4898616;29;20044;-81
2023/08/29 10:20:46;;;;;;;5.20;4.80;;;15.00;99.90;;;;;;4894716;29;20092;-79
2023/08/29 10:23:15;;;;;;;4.53;4.03;;;15.10;99.90;;;;;;4900326;29;20041;-80
2023/08/29 10:25:42;;;;;;;4.55;4.15;;;15.20;99.90;;;;;;4890321;29;20047;-82
2023/08/29 10:28:12;;;;;;;4.05;3.75;;;15.20;99.90;;;;;;4908722;29;20393;-82
2023/08/29 10:30:49;;;;;;;4.15;3.85;;;15.20;99.90;;;;;;4898370;29;20119;-83
2023/08/29 10:33:15;;;;;;;3.75;3.45;;;15.30;99.90;;;;;;4896235;29;20654;-83
2023/08/29 10:35:41;;;;;;;5.75;3.38;;;15.30;99.90;;;;;;4901056;29;20029;-82
2023/08/29 10:38:12;;;;;;;3.83;3.53;;;15.30;99.90;;;;;;4905020;29;20032;-83
2023/08/29 10:40:38;;;;;;;3.78;3.47;;;15.30;99.90;;;;;;4894995;29;20033;-82
2023/08/29 10:43:19;;;;;;;4.88;3.38;;;15.20;99.90;;;;;;4898289;29;20500;-82
2023/08/29 10:45:56;;;;;;;4.18;3.58;;;15.10;99.90;;;;;;4903980;29;20040;-82
2023/08/29 10:48:32;;;;;;;3.40;3.10;;;15.00;99.90;;;;;;4908565;29;20028;-82
2023/08/29 10:51:07;;;;;;;4.10;3.80;;;14.90;99.90;;;;;;4895711;29;20123;-82
2023/08/29 10:53:45;;;;;;;3.13;2.90;;;14.80;99.90;;;;;;4899494;29;20486;-82
2023/08/29 10:56:12;;;;;;;3.45;3.22;;;14.80;99.90;;;;;;4906400;29;20043;-82
2023/08/29 10:58:40;;;;;;;3.13;2.92;;;14.70;99.90;;;;;;4907350;29;20092;-81
2023/08/29 11:01:08;;;;;;;4.07;3.60;;;14.70;99.90;;;;;;4894592;29;20035;-82
2023/08/29 11:03:42;;;;;;;3.63;3.33;;;14.70;99.90;;;;;;4892985;29;20040;-83
2023/08/29 11:06:08;;;;;;;3.45;3.15;;;14.70;99.90;;;;;;4904459;29;20058;-82
2023/08/29 11:08:34;;;;;;;3.50;3.28;;;14.70;99.90;;;;;;4931415;29;20039;-81
2023/08/29 11:11:22;;;;;;;4.57;3.63;;;14.90;99.90;;;;;;4896220;29;20493;-81
2023/08/29 11:13:58;;;;;;;3.50;3.20;;;15.00;99.90;;;;;;4897721;29;20036;-81
2023/08/29 11:16:25;;;;;;;3.90;3.05;;;15.10;99.90;;;;;;4904246;29;20064;-82
2023/08/29 11:19:05;;;;;;;3.08;2.88;;;15.20;99.90;;;;;;4907704;29;20045;-82
2023/08/29 11:21:31;;;;;;;3.05;2.85;;;15.30;99.90;;;;;;4896595;29;20120;-81
2023/08/29 11:23:58;;;;;;;4.07;3.70;;;15.50;99.90;;;;;;4896637;29;20045;-83
2023/08/29 11:26:25;;;;;;;3.03;2.72;;;15.70;99.90;;;;;;4911376;29;20357;-84
2023/08/29 11:28:51;;;;;;;2.15;2.00;;;15.90;99.90;;;;;;4913277;29;20500;-82
2023/08/29 11:31:18;;;;;;;1.88;1.77;;;16.00;99.90;;;;;;4914808;29;20094;-82
2023/08/29 11:33:48;;;;;;;1.60;1.40;;;16.10;99.90;;;;;;4898067;29;20045;-83
2023/08/29 11:36:15;;;;;;;2.28;1.90;;;16.00;99.90;;;;;;4914040;29;20039;-84
2023/08/29 11:38:42;;;;;;;1.70;1.60;;;16.00;99.90;;;;;;4893722;29;20521;-81
2023/08/29 11:41:10;;;;;;;1.98;1.77;;;15.90;99.90;;;;;;4914885;29;20056;-83
2023/08/29 11:43:36;;;;;;;3.42;1.75;;;15.90;99.90;;;;;;4900059;29;20035;-84
2023/08/29 11:46:05;;;;;;;2.17;2.05;;;15.90;99.90;;;;;;4907702;29;20115;-84
2023/08/29 11:48:32;;;;;;;2.05;1.85;;;15.80;99.90;;;;;;4904185;29;20029;-85
2023/08/29 11:51:06;;;;;;;3.88;1.40;;;15.80;99.90;;;;;;4910220;29;20043;-82
2023/08/29 11:53:37;;;;;;;2.80;1.85;;;15.80;99.90;;;;;;4902947;29;20044;-81
2023/08/29 11:56:04;;;;;;;1.60;1.50;;;15.90;99.90;;;;;;4912567;29;20412;-84
2023/08/29 11:58:35;;;;;;;2.63;1.60;;;15.90;99.90;;;;;;4880644;29;20136;-83
2023/08/29 12:01:04;;;;;;;2.20;1.40;;;15.80;99.90;;;;;;4895578;29;20103;-81
2023/08/29 12:03:33;;;;;;;2.17;1.70;;;15.80;99.90;;;;;;4898765;29;20043;-82
2023/08/29 12:05:59;;;;;;;1.98;1.60;;;15.80;99.90;;;;;;4911017;29;20112;-81
2023/08/29 12:08:42;;;;;;;1.85;1.33;;;15.80;99.90;;;;;;4895235;29;20493;-84
2023/08/29 12:11:12;;;;;;;1.70;1.60;;;15.80;99.90;;;;;;4899038;29;20044;-82
2023/08/29 12:13:41;;;;;;;1.67;1.58;;;15.80;99.90;;;;;;4899561;29;20123;-83
2023/08/29 12:16:14;;;;;;;2.00;1.50;;;15.90;99.90;;;;;;4925203;29;20414;-84
2023/08/29 12:18:40;;;;;;;2.88;1.60;;;15.80;99.90;;;;;;4892578;29;20092;-83
2023/08/29 12:21:24;;;;;;;1.70;1.60;;;15.90;99.90;;;;;;4883472;29;20044;-81
2023/08/29 12:23:50;;;;;;;2.40;1.55;;;15.80;99.90;;;;;;4919436;29;20135;-83
2023/08/29 12:26:16;;;;;;;2.42;1.50;;;15.80;99.90;;;;;;4895677;29;20063;-84
2023/08/29 12:28:42;;;;;;;2.13;1.70;;;15.70;99.90;;;;;;4890144;29;20625;-81
2023/08/29 12:31:08;;;;;;;1.60;1.50;;;15.70;99.90;;;;;;4905466;29;20524;-83
2023/08/29 12:33:34;;;;;;;2.13;1.83;;;15.70;99.90;;;;;;4902590;29;20033;-82
2023/08/29 12:36:01;;;;;;;2.17;1.98;;;15.70;99.90;;;;;;4903966;29;20055;-83
2023/08/29 12:38:27;;;;;;;2.15;1.80;;;15.70;99.90;;;;;;4901195;29;20036;-82
2023/08/29 12:40:53;;;;;;;1.75;1.65;;;15.70;99.90;;;;;;4908593;29;20064;-82